Time;durP1;ratioP1;P1;durP2;ratioP2;P2;SDS_P1;SDS_P2;PMS_P1;PMS_P2;Temp;Humidity;BMP_temperature;BMP_pressure;BME280_temperature;BME280_humidity;BME280_pressure;Samples;Min_cycle;Max_cycle;Signal;HPM_P1;HPM_P2
2023/06/28 00:02:12;;;;;;;13.32;5.00;;;20.20;99.70;;;;;;5052431;28;20072;-51
2023/06/28 00:04:39;;;;;;;13.18;5.13;;;20.20;99.50;;;;;;5052413;28;20052;-49
2023/06/28 00:07:07;;;;;;;11.85;5.10;;;20.20;99.60;;;;;;5052835;28;20099;-53
2023/06/28 00:09:34;;;;;;;11.25;5.47;;;20.20;99.60;;;;;;5052854;28;20045;-50
2023/06/28 00:12:00;;;;;;;13.43;5.60;;;20.20;99.70;;;;;;5052750;28;20429;-48
2023/06/28 00:14:27;;;;;;;15.38;5.68;;;20.20;99.70;;;;;;5052444;28;20087;-46
2023/06/28 00:16:54;;;;;;;11.57;5.18;;;20.20;99.70;;;;;;5052459;28;20099;-46
2023/06/28 00:19:26;;;;;;;12.45;5.85;;;20.10;99.80;;;;;;5055421;28;20041;-51
2023/06/28 00:21:53;;;;;;;13.73;5.35;;;20.10;99.80;;;;;;5055665;28;20041;-50
2023/06/28 00:24:20;;;;;;;12.70;6.10;;;20.10;99.80;;;;;;5056136;28;20480;-46
2023/06/28 00:26:47;;;;;;;12.90;6.10;;;20.10;99.80;;;;;;5056107;28;20033;-49
2023/06/28 00:29:13;;;;;;;12.68;5.22;;;20.10;99.80;;;;;;5056486;28;20048;-46
2023/06/28 00:31:40;;;;;;;10.60;5.93;;;20.10;99.90;;;;;;5056356;28;20123;-47
2023/06/28 00:34:07;;;;;;;11.70;5.38;;;20.10;99.90;;;;;;5054860;28;20049;-47
2023/06/28 00:36:34;;;;;;;14.95;5.85;;;20.10;99.90;;;;;;5054963;28;20131;-50
2023/06/28 00:39:02;;;;;;;12.80;5.82;;;20.10;99.90;;;;;;5056005;28;20063;-50
2023/06/28 00:41:29;;;;;;;13.40;5.50;;;20.10;99.90;;;;;;5056267;28;20048;-46
2023/06/28 00:43:56;;;;;;;12.18;5.32;;;20.10;99.90;;;;;;5055896;28;20048;-52
2023/06/28 00:46:23;;;;;;;14.77;5.72;;;20.10;99.90;;;;;;5055990;28;20041;-51
2023/06/28 00:48:49;;;;;;;13.68;5.93;;;20.10;99.90;;;;;;5054748;28;20037;-49
2023/06/28 00:51:17;;;;;;;13.88;5.72;;;20.10;99.90;;;;;;5054371;28;20045;-48
2023/06/28 00:53:44;;;;;;;13.05;5.80;;;20.10;99.90;;;;;;5055824;28;20041;-47
2023/06/28 00:56:11;;;;;;;14.57;5.60;;;20.10;99.90;;;;;;5054351;28;20044;-49
2023/06/28 00:58:38;;;;;;;14.77;6.10;;;20.10;99.90;;;;;;5055942;28;20099;-49
2023/06/28 01:01:05;;;;;;;12.05;5.43;;;20.10;99.90;;;;;;5053921;28;20057;-49
2023/06/28 01:03:31;;;;;;;15.73;5.70;;;20.10;99.90;;;;;;5055674;28;20052;-45
2023/06/28 01:05:59;;;;;;;14.68;5.82;;;20.10;99.90;;;;;;5055427;28;20060;-49
2023/06/28 01:08:26;;;;;;;11.52;5.75;;;20.10;99.90;;;;;;5054255;28;20095;-49
2023/06/28 01:10:53;;;;;;;11.55;5.60;;;20.10;99.90;;;;;;5054653;28;20048;-51
2023/06/28 01:13:19;;;;;;;11.27;5.70;;;20.00;99.90;;;;;;5051185;28;20038;-46
2023/06/28 01:15:47;;;;;;;13.10;6.25;;;20.00;99.90;;;;;;5049239;28;20064;-46
2023/06/28 01:18:16;;;;;;;13.38;6.63;;;20.00;99.90;;;;;;5047154;28;20507;-49
2023/06/28 01:20:44;;;;;;;12.32;6.22;;;20.00;99.90;;;;;;5049093;28;20064;-45
2023/06/28 01:23:10;;;;;;;11.80;5.95;;;20.00;99.90;;;;;;5054570;28;20052;-45
2023/06/28 01:25:37;;;;;;;12.52;6.32;;;20.00;99.90;;;;;;5055171;28;20529;-49
2023/06/28 01:28:04;;;;;;;15.38;6.30;;;20.00;99.90;;;;;;5055171;28;20041;-45
2023/06/28 01:30:37;;;;;;;14.30;6.13;;;20.00;99.90;;;;;;5047632;28;20036;-48
2023/06/28 01:33:04;;;;;;;11.90;6.20;;;20.00;99.90;;;;;;5047833;28;20068;-46
2023/06/28 01:35:31;;;;;;;12.30;6.50;;;20.00;99.90;;;;;;5054929;28;20115;-46
2023/06/28 01:37:58;;;;;;;16.48;6.57;;;20.00;99.90;;;;;;5055011;28;20053;-46
2023/06/28 01:40:25;;;;;;;15.88;7.00;;;20.00;99.90;;;;;;5053531;28;20041;-48
2023/06/28 01:42:52;;;;;;;13.60;6.40;;;20.00;99.90;;;;;;5054847;28;20444;-48
2023/06/28 01:45:18;;;;;;;16.42;6.80;;;20.00;99.90;;;;;;5054793;28;20484;-50
2023/06/28 01:47:45;;;;;;;16.42;6.53;;;20.00;99.90;;;;;;5054529;28;20207;-47
2023/06/28 01:50:12;;;;;;;15.80;6.40;;;20.00;99.90;;;;;;5054884;28;20037;-48
2023/06/28 01:52:39;;;;;;;15.68;6.70;;;20.00;99.90;;;;;;5054456;28;20150;-46
2023/06/28 01:55:06;;;;;;;15.48;6.78;;;20.00;99.90;;;;;;5053405;28;20492;-51
2023/06/28 01:57:32;;;;;;;15.18;6.45;;;20.00;99.90;;;;;;5054494;28;20049;-47
2023/06/28 02:00:04;;;;;;;15.85;6.80;;;20.00;99.90;;;;;;5053149;28;20037;-49
2023/06/28 02:02:42;;;;;;;12.77;6.20;;;20.00;99.90;;;;;;5054161;28;20037;-45
2023/06/28 02:05:09;;;;;;;21.27;7.40;;;20.00;99.90;;;;;;5053134;28;20527;-50
2023/06/28 02:07:36;;;;;;;15.07;6.60;;;20.00;99.90;;;;;;5054266;28;20044;-45
2023/06/28 02:10:03;;;;;;;16.38;7.25;;;20.00;99.90;;;;;;5054277;28;20083;-48
2023/06/28 02:12:29;;;;;;;15.43;6.95;;;20.00;99.90;;;;;;5052825;28;20044;-49
2023/06/28 02:14:56;;;;;;;17.38;7.43;;;19.90;99.90;;;;;;5052835;28;20127;-46
2023/06/28 02:17:23;;;;;;;14.88;6.63;;;19.90;99.90;;;;;;5052746;28;20052;-49
2023/06/28 02:19:50;;;;;;;16.20;7.40;;;19.90;99.90;;;;;;5047690;28;20045;-47
2023/06/28 02:22:16;;;;;;;16.63;7.30;;;19.90;99.90;;;;;;5052105;28;20064;-47
2023/06/28 02:24:43;;;;;;;14.88;7.40;;;19.90;99.90;;;;;;5054084;28;20124;-47
2023/06/28 02:27:10;;;;;;;11.35;6.47;;;19.90;99.90;;;;;;5053938;28;20044;-46
2023/06/28 02:29:37;;;;;;;13.05;7.03;;;19.90;99.90;;;;;;5053822;28;20492;-47
2023/06/28 02:32:05;;;;;;;19.08;7.22;;;19.90;99.90;;;;;;5054131;28;20476;-46
2023/06/28 02:34:31;;;;;;;14.15;6.43;;;19.90;99.90;;;;;;5053907;28;20484;-49
2023/06/28 02:36:58;;;;;;;11.85;6.75;;;20.00;99.90;;;;;;5052610;28;20131;-46
2023/06/28 02:39:25;;;;;;;15.50;7.35;;;20.00;99.90;;;;;;5052388;28;20053;-49
2023/06/28 02:41:52;;;;;;;15.02;7.10;;;19.90;99.90;;;;;;5068593;28;20053;-49
2023/06/28 02:44:19;;;;;;;14.32;6.95;;;19.90;99.90;;;;;;5053739;28;20047;-47
2023/06/28 02:46:47;;;;;;;14.50;6.63;;;19.90;99.90;;;;;;5036091;28;20383;-46
2023/06/28 02:49:13;;;;;;;15.20;6.75;;;19.90;99.90;;;;;;5053812;28;20472;-49
2023/06/28 02:51:40;;;;;;;16.05;6.97;;;19.90;99.90;;;;;;5052447;28;20167;-48
2023/06/28 02:54:11;;;;;;;18.23;6.97;;;19.90;99.90;;;;;;5052460;28;20037;-49
2023/06/28 02:56:38;;;;;;;15.40;7.32;;;19.90;99.90;;;;;;5053264;28;20403;-47
2023/06/28 02:59:23;;;;;;;14.85;7.30;;;19.90;99.90;;;;;;5053200;28;20052;-48
2023/06/28 03:01:53;;;;;;;16.50;7.68;;;19.90;99.90;;;;;;5051686;28;20080;-48
2023/06/28 03:04:20;;;;;;;15.48;7.82;;;19.90;99.90;;;;;;5053249;28;20043;-48
2023/06/28 03:06:49;;;;;;;14.32;7.45;;;19.80;99.90;;;;;;5051992;28;20040;-47
2023/06/28 03:09:16;;;;;;;15.27;7.40;;;19.80;99.90;;;;;;5051831;28;20136;-49
2023/06/28 03:11:43;;;;;;;17.65;7.90;;;19.80;99.90;;;;;;5051897;28;20376;-48
2023/06/28 03:14:10;;;;;;;18.23;7.90;;;19.80;99.90;;;;;;5068266;28;20132;-51
2023/06/28 03:16:37;;;;;;;14.65;7.32;;;19.80;99.90;;;;;;5052052;28;20045;-48
2023/06/28 03:19:04;;;;;;;17.30;8.23;;;19.80;99.90;;;;;;5052023;28;20047;-50
2023/06/28 03:21:31;;;;;;;14.40;7.85;;;19.70;99.90;;;;;;5051917;28;20501;-46
2023/06/28 03:23:58;;;;;;;14.32;8.10;;;19.70;99.90;;;;;;5046714;28;20049;-46
2023/06/28 03:26:24;;;;;;;15.40;8.18;;;19.70;99.90;;;;;;5052903;28;20048;-49
2023/06/28 03:28:53;;;;;;;16.42;8.38;;;19.70;99.90;;;;;;5052412;28;20365;-48
2023/06/28 03:31:20;;;;;;;19.20;8.90;;;19.70;99.90;;;;;;5051901;28;20056;-50
2023/06/28 03:33:47;;;;;;;19.95;8.98;;;19.70;99.90;;;;;;5051597;28;20403;-48
2023/06/28 03:36:14;;;;;;;16.75;8.88;;;19.70;99.90;;;;;;5051515;28;20072;-46
2023/06/28 03:38:41;;;;;;;16.15;8.73;;;19.70;99.90;;;;;;5052388;28;20037;-47
2023/06/28 03:41:09;;;;;;;18.58;9.90;;;19.60;99.90;;;;;;5070697;28;20123;-48
2023/06/28 03:43:36;;;;;;;19.25;9.57;;;19.60;99.90;;;;;;5070837;28;20048;-51
2023/06/28 03:46:02;;;;;;;17.80;8.90;;;19.70;99.90;;;;;;5070571;28;20094;-50
2023/06/28 03:48:29;;;;;;;18.48;10.00;;;19.70;99.90;;;;;;5070112;28;20227;-52
2023/06/28 03:50:57;;;;;;;15.45;9.25;;;19.70;99.90;;;;;;5054187;28;20407;-48
2023/06/28 03:53:23;;;;;;;21.25;10.85;;;19.70;99.90;;;;;;5071777;28;20037;-49
2023/06/28 03:55:51;;;;;;;17.63;9.48;;;19.60;99.90;;;;;;5075087;28;20411;-52
2023/06/28 03:58:17;;;;;;;19.60;10.68;;;19.70;99.90;;;;;;5075002;28;20066;-46
2023/06/28 04:00:47;;;;;;;17.92;10.13;;;19.70;99.90;;;;;;5074876;28;20061;-50
2023/06/28 04:03:15;;;;;;;17.13;10.18;;;19.70;99.90;;;;;;5074603;28;20054;-47
2023/06/28 04:05:42;;;;;;;18.10;11.02;;;19.70;99.90;;;;;;5074821;28;20483;-47
2023/06/28 04:08:09;;;;;;;18.08;11.02;;;19.70;99.90;;;;;;5074705;28;20040;-45
2023/06/28 04:10:36;;;;;;;18.52;10.65;;;19.70;99.90;;;;;;5074753;28;20056;-51
2023/06/28 04:13:03;;;;;;;18.75;10.70;;;19.70;99.90;;;;;;5059298;28;20411;-46
2023/06/28 04:15:29;;;;;;;17.83;10.35;;;19.70;99.90;;;;;;5056715;28;20487;-49
2023/06/28 04:17:56;;;;;;;18.73;10.50;;;19.70;99.90;;;;;;5059770;28;20032;-48
2023/06/28 04:20:23;;;;;;;19.02;9.82;;;19.70;99.90;;;;;;5056649;28;20495;-49
2023/06/28 04:22:50;;;;;;;18.50;10.02;;;19.80;99.90;;;;;;5056013;28;20075;-47
2023/06/28 04:25:16;;;;;;;19.50;9.90;;;19.80;99.90;;;;;;5056557;28;20071;-48
2023/06/28 04:27:43;;;;;;;16.55;10.32;;;19.80;99.90;;;;;;5056367;28;20113;-50
2023/06/28 04:30:10;;;;;;;15.63;9.85;;;19.70;99.90;;;;;;5055113;28;20037;-49
2023/06/28 04:32:37;;;;;;;17.67;10.27;;;19.70;99.90;;;;;;5056174;28;20452;-46
2023/06/28 04:35:04;;;;;;;15.25;9.50;;;19.70;99.90;;;;;;5056429;28;20037;-52
2023/06/28 04:37:31;;;;;;;19.08;10.40;;;19.70;99.90;;;;;;5056355;28;20079;-47
2023/06/28 04:39:58;;;;;;;20.88;10.52;;;19.70;99.90;;;;;;5056297;28;20041;-51
2023/06/28 04:42:25;;;;;;;18.50;10.10;;;19.70;99.90;;;;;;5056113;28;20045;-51
2023/06/28 04:44:54;;;;;;;17.38;10.85;;;19.80;99.90;;;;;;5056180;28;20056;-51
2023/06/28 04:47:22;;;;;;;13.45;9.30;;;19.80;99.90;;;;;;5055973;28;20095;-48
2023/06/28 04:49:49;;;;;;;14.35;9.90;;;19.80;99.90;;;;;;5056039;28;20160;-48
2023/06/28 04:52:16;;;;;;;16.77;10.38;;;19.80;99.90;;;;;;5056031;28;20044;-49
2023/06/28 04:54:43;;;;;;;19.05;9.55;;;19.80;99.90;;;;;;5055952;28;20127;-50
2023/06/28 04:57:10;;;;;;;19.58;9.45;;;19.80;99.90;;;;;;5055896;28;20052;-48
2023/06/28 04:59:37;;;;;;;18.00;10.00;;;19.90;99.90;;;;;;5055707;28;20095;-50
2023/06/28 05:02:05;;;;;;;17.52;9.25;;;20.00;99.90;;;;;;5055651;28;20045;-47
2023/06/28 05:04:32;;;;;;;14.52;9.35;;;20.00;99.90;;;;;;5055578;28;20045;-47
2023/06/28 05:07:01;;;;;;;17.48;10.13;;;20.00;99.90;;;;;;5055700;28;20095;-53
2023/06/28 05:09:28;;;;;;;17.75;9.57;;;20.00;99.90;;;;;;5055840;28;20103;-46
2023/06/28 05:11:56;;;;;;;18.52;9.45;;;20.00;99.90;;;;;;5055572;28;20040;-48
2023/06/28 05:14:22;;;;;;;16.85;9.35;;;20.00;99.90;;;;;;5055421;28;20049;-45
2023/06/28 05:16:49;;;;;;;17.90;9.30;;;20.00;99.90;;;;;;5055525;28;20107;-46
2023/06/28 05:19:16;;;;;;;13.88;9.32;;;20.00;99.90;;;;;;5055643;28;20071;-46
2023/06/28 05:21:43;;;;;;;18.17;9.45;;;20.00;99.90;;;;;;5054933;28;20052;-49
2023/06/28 05:24:09;;;;;;;18.13;9.80;;;20.00;99.90;;;;;;5055375;28;20048;-49
2023/06/28 05:26:36;;;;;;;18.05;9.80;;;20.10;99.90;;;;;;5055186;28;20594;-51
2023/06/28 05:29:03;;;;;;;15.45;9.60;;;20.10;99.90;;;;;;5055238;28;20124;-49
2023/06/28 05:31:30;;;;;;;14.20;9.40;;;20.10;99.90;;;;;;5055323;28;20086;-49
2023/06/28 05:33:56;;;;;;;16.90;9.98;;;20.10;99.90;;;;;;5055056;28;20045;-51
2023/06/28 05:36:23;;;;;;;15.40;9.80;;;20.10;99.90;;;;;;5055160;28;20041;-49
2023/06/28 05:38:52;;;;;;;14.25;9.27;;;20.10;99.90;;;;;;5055066;28;20044;-50
2023/06/28 05:41:19;;;;;;;16.67;9.57;;;20.10;99.90;;;;;;5053671;28;20111;-52
2023/06/28 05:43:46;;;;;;;16.80;10.23;;;20.10;99.90;;;;;;5055035;28;20051;-52
2023/06/28 05:46:12;;;;;;;14.73;9.25;;;20.10;99.90;;;;;;5055291;28;20495;-49
2023/06/28 05:48:39;;;;;;;18.77;10.00;;;20.20;99.90;;;;;;5055119;28;20125;-50
2023/06/28 05:51:09;;;;;;;16.70;10.10;;;20.20;99.90;;;;;;5054921;28;20119;-49
2023/06/28 05:53:37;;;;;;;14.88;9.73;;;20.20;99.90;;;;;;5054777;28;20103;-52
2023/06/28 05:56:03;;;;;;;15.43;10.00;;;20.10;99.90;;;;;;5053809;28;20052;-47
2023/06/28 05:58:30;;;;;;;15.13;9.82;;;20.10;99.90;;;;;;5053409;28;20041;-48
2023/06/28 06:00:57;;;;;;;20.45;10.43;;;20.20;99.90;;;;;;5054594;28;20045;-51
2023/06/28 06:03:24;;;;;;;15.85;10.45;;;20.20;99.90;;;;;;5054517;28;20041;-48
2023/06/28 06:05:51;;;;;;;17.25;10.57;;;20.20;99.90;;;;;;5054673;28;20037;-50
2023/06/28 06:08:18;;;;;;;17.23;10.40;;;20.20;99.90;;;;;;5054566;28;20135;-49
2023/06/28 06:10:45;;;;;;;15.75;10.57;;;20.20;99.90;;;;;;5053891;28;20033;-45
2023/06/28 06:13:11;;;;;;;16.80;10.52;;;20.20;99.90;;;;;;5054188;28;20132;-48
2023/06/28 06:15:38;;;;;;;19.05;10.88;;;20.30;99.90;;;;;;5053720;28;20395;-50
2023/06/28 06:18:05;;;;;;;15.85;9.10;;;20.30;99.90;;;;;;5053577;28;20061;-48
2023/06/28 06:20:33;;;;;;;15.93;9.68;;;20.30;99.90;;;;;;5054282;28;20048;-49
2023/06/28 06:23:00;;;;;;;16.50;10.57;;;20.30;99.90;;;;;;5054049;28;20132;-47
2023/06/28 06:25:27;;;;;;;15.23;9.75;;;20.30;99.90;;;;;;5053679;28;20071;-46
2023/06/28 06:27:54;;;;;;;15.18;10.20;;;20.30;99.90;;;;;;5052805;28;20559;-46
2023/06/28 06:30:21;;;;;;;15.60;9.73;;;20.30;99.90;;;;;;5054365;28;20067;-49
2023/06/28 06:32:48;;;;;;;15.52;9.32;;;20.30;99.90;;;;;;5053940;28;20068;-47
2023/06/28 06:35:15;;;;;;;15.73;9.98;;;20.30;99.90;;;;;;5053946;28;20041;-50
2023/06/28 06:37:45;;;;;;;17.88;10.15;;;20.40;99.90;;;;;;5053743;28;20488;-47
2023/06/28 06:40:12;;;;;;;15.82;10.20;;;20.40;99.90;;;;;;5054075;28;20365;-47
2023/06/28 06:42:39;;;;;;;16.08;9.85;;;20.30;99.90;;;;;;5053967;28;20051;-47
2023/06/28 06:45:06;;;;;;;17.13;10.70;;;20.40;99.90;;;;;;5052580;28;20041;-46
2023/06/28 06:47:32;;;;;;;15.23;10.55;;;20.30;99.90;;;;;;5053710;28;20403;-51
2023/06/28 06:49:59;;;;;;;16.45;10.95;;;20.40;99.90;;;;;;5053685;28;20037;-46
2023/06/28 06:52:26;;;;;;;16.98;10.15;;;20.40;99.90;;;;;;5053568;28;20135;-49
2023/06/28 06:54:53;;;;;;;15.35;10.82;;;20.50;99.90;;;;;;5052491;28;20395;-46
2023/06/28 06:57:20;;;;;;;14.95;11.07;;;20.50;99.90;;;;;;5053864;28;20492;-49
2023/06/28 06:59:46;;;;;;;16.30;11.45;;;20.60;99.90;;;;;;5053717;28;20102;-49
2023/06/28 07:02:13;;;;;;;17.65;10.85;;;20.60;99.90;;;;;;5053220;28;20063;-48
2023/06/28 07:04:40;;;;;;;15.15;10.13;;;20.70;99.90;;;;;;5053409;28;20040;-52
2023/06/28 07:07:07;;;;;;;17.98;11.10;;;20.70;99.90;;;;;;5053356;28;20048;-49
2023/06/28 07:09:34;;;;;;;15.27;10.68;;;20.80;99.90;;;;;;5053532;28;20045;-52
2023/06/28 07:12:00;;;;;;;13.80;10.38;;;20.90;99.90;;;;;;5053263;28;20128;-49
2023/06/28 07:14:27;;;;;;;14.27;10.18;;;21.10;99.90;;;;;;5053316;28;20037;-49
2023/06/28 07:16:54;;;;;;;14.52;10.07;;;21.20;99.90;;;;;;5053349;28;20045;-50
2023/06/28 07:19:21;;;;;;;15.15;9.80;;;21.40;99.90;;;;;;5053372;28;20056;-52
2023/06/28 07:21:47;;;;;;;16.48;10.05;;;21.40;99.90;;;;;;5052716;28;20474;-52
2023/06/28 07:24:14;;;;;;;15.70;10.95;;;21.50;99.90;;;;;;5052066;28;20071;-47
2023/06/28 07:26:41;;;;;;;16.00;10.82;;;21.60;99.90;;;;;;5053099;28;20057;-48
2023/06/28 07:29:08;;;;;;;13.00;9.70;;;21.60;99.90;;;;;;5052361;28;20037;-46
2023/06/28 07:31:35;;;;;;;14.60;10.27;;;21.60;99.90;;;;;;5051753;28;20099;-47
2023/06/28 07:34:04;;;;;;;14.23;9.93;;;21.60;99.90;;;;;;5053091;28;20061;-49
2023/06/28 07:36:31;;;;;;;15.88;10.52;;;21.70;99.90;;;;;;5053080;28;20048;-49
2023/06/28 07:38:58;;;;;;;14.50;10.38;;;21.80;99.90;;;;;;5053019;28;20048;-51
2023/06/28 07:41:25;;;;;;;15.27;10.15;;;21.90;99.90;;;;;;5053071;28;20072;-47
2023/06/28 07:43:52;;;;;;;15.43;9.63;;;22.10;99.90;;;;;;5052605;28;20040;-51
2023/06/28 07:46:19;;;;;;;14.05;9.32;;;22.20;99.90;;;;;;5052779;28;20041;-51
2023/06/28 07:48:46;;;;;;;12.90;9.25;;;22.20;99.40;;;;;;5052563;28;20041;-51
2023/06/28 07:51:12;;;;;;;11.65;9.00;;;22.20;99.60;;;;;;5052967;28;20135;-50
2023/06/28 07:53:41;;;;;;;14.95;10.07;;;22.20;99.30;;;;;;5051707;28;20473;-46
2023/06/28 07:56:08;;;;;;;12.43;8.73;;;22.20;99.60;;;;;;5052961;28;20549;-49
2023/06/28 07:58:35;;;;;;;12.02;9.27;;;22.20;99.40;;;;;;5053135;28;20041;-47
2023/06/28 08:01:01;;;;;;;16.67;9.48;;;22.30;99.50;;;;;;5052720;28;20127;-47
2023/06/28 08:03:28;;;;;;;14.18;9.73;;;22.30;99.40;;;;;;5052831;28;20045;-50
2023/06/28 08:05:55;;;;;;;12.35;8.70;;;22.20;99.20;;;;;;5052810;28;20047;-49
2023/06/28 08:08:22;;;;;;;11.85;8.10;;;22.20;99.20;;;;;;5052484;28;20037;-46
2023/06/28 08:10:49;;;;;;;12.52;9.10;;;22.10;99.10;;;;;;5052862;28;20037;-46
2023/06/28 08:13:15;;;;;;;11.63;9.02;;;22.00;99.40;;;;;;5052535;28;20472;-51
2023/06/28 08:15:42;;;;;;;12.35;9.18;;;22.00;99.60;;;;;;5052873;28;20554;-52
2023/06/28 08:18:10;;;;;;;13.70;9.10;;;22.10;99.60;;;;;;5052617;28;20500;-49
2023/06/28 08:20:37;;;;;;;12.10;9.05;;;22.10;99.40;;;;;;5052666;28;20049;-51
2023/06/28 08:23:07;;;;;;;15.18;8.80;;;22.10;99.40;;;;;;5052478;28;20513;-47
2023/06/28 08:25:33;;;;;;;16.80;10.13;;;22.10;99.40;;;;;;5051090;28;20049;-48
2023/06/28 08:28:00;;;;;;;18.50;10.23;;;22.10;99.20;;;;;;5052399;28;20475;-47
2023/06/28 08:30:27;;;;;;;11.45;9.40;;;22.10;99.40;;;;;;5052550;28;20468;-50
2023/06/28 08:32:54;;;;;;;12.02;9.15;;;22.10;99.50;;;;;;5052486;28;20072;-45
2023/06/28 08:35:21;;;;;;;13.32;8.63;;;22.00;99.50;;;;;;5052366;28;20408;-46
2023/06/28 08:37:47;;;;;;;12.15;8.93;;;22.00;99.60;;;;;;5052490;28;20484;-48
2023/06/28 08:40:14;;;;;;;10.10;8.35;;;21.90;99.80;;;;;;5054887;28;20052;-48
2023/06/28 08:42:41;;;;;;;12.32;8.50;;;21.90;99.90;;;;;;5055412;28;20079;-53
2023/06/28 08:45:08;;;;;;;12.68;8.20;;;22.00;99.90;;;;;;5056135;28;20048;-47
2023/06/28 08:47:35;;;;;;;12.57;8.68;;;22.10;99.80;;;;;;5056339;28;20041;-48
2023/06/28 08:50:01;;;;;;;12.32;7.78;;;22.20;99.60;;;;;;5055174;28;20128;-47
2023/06/28 08:52:30;;;;;;;10.30;8.07;;;22.30;99.60;;;;;;5056131;28;20043;-47
2023/06/28 08:54:56;;;;;;;12.20;7.85;;;22.40;99.60;;;;;;5055349;28;20381;-47
2023/06/28 08:57:23;;;;;;;12.32;8.23;;;22.40;99.50;;;;;;5055945;28;20040;-48
2023/06/28 08:59:50;;;;;;;11.25;7.70;;;22.40;99.40;;;;;;5055814;28;20052;-47
2023/06/28 09:02:20;;;;;;;10.80;7.63;;;22.40;99.50;;;;;;5055370;28;20503;-51
2023/06/28 09:04:46;;;;;;;10.85;8.40;;;22.50;99.50;;;;;;5055639;28;20037;-48
2023/06/28 09:07:13;;;;;;;11.95;8.45;;;22.60;99.50;;;;;;5055905;28;20048;-49
2023/06/28 09:09:40;;;;;;;9.25;6.85;;;22.70;99.50;;;;;;5053854;28;20401;-53
2023/06/28 09:12:07;;;;;;;12.00;8.13;;;22.70;99.20;;;;;;5055503;28;20032;-50
2023/06/28 09:14:34;;;;;;;11.00;7.72;;;22.60;99.20;;;;;;5055698;28;20374;-49
2023/06/28 09:17:00;;;;;;;10.80;7.38;;;22.70;99.40;;;;;;5055407;28;20498;-48
2023/06/28 09:19:27;;;;;;;10.07;7.50;;;22.80;99.20;;;;;;5055467;28;20040;-46
2023/06/28 09:21:54;;;;;;;9.60;7.68;;;22.80;99.10;;;;;;5055476;28;20049;-48
2023/06/28 09:24:21;;;;;;;10.90;7.72;;;22.80;99.30;;;;;;5053673;28;20094;-48
2023/06/28 09:26:47;;;;;;;8.93;6.75;;;23.00;99.10;;;;;;5055274;28;20438;-46
2023/06/28 09:29:14;;;;;;;11.70;7.20;;;23.00;98.90;;;;;;5055082;28;20045;-46
2023/06/28 09:31:41;;;;;;;11.00;6.85;;;23.00;98.70;;;;;;5055344;28;20053;-46
2023/06/28 09:34:08;;;;;;;10.55;7.32;;;23.00;98.60;;;;;;5055062;28;20037;-46
2023/06/28 09:36:37;;;;;;;10.73;7.53;;;23.00;99.00;;;;;;5050726;28;20041;-47
2023/06/28 09:39:04;;;;;;;10.85;7.97;;;23.10;98.90;;;;;;5053349;28;20049;-48
2023/06/28 09:41:31;;;;;;;11.70;7.70;;;23.10;98.80;;;;;;5054472;28;20047;-49
2023/06/28 09:43:58;;;;;;;9.60;7.55;;;23.10;98.90;;;;;;5054872;28;20555;-53
2023/06/28 09:46:24;;;;;;;10.77;7.90;;;23.20;98.50;;;;;;5055322;28;20044;-50
2023/06/28 09:48:51;;;;;;;9.80;7.32;;;23.30;98.60;;;;;;5054878;28;20047;-50
2023/06/28 09:51:18;;;;;;;12.52;8.45;;;23.30;98.60;;;;;;5053977;28;20037;-53
2023/06/28 09:53:45;;;;;;;11.23;7.90;;;23.40;98.40;;;;;;5054903;28;20037;-53
2023/06/28 09:56:12;;;;;;;12.80;8.02;;;23.40;98.20;;;;;;5054852;28;20065;-47
2023/06/28 09:58:38;;;;;;;11.68;8.30;;;23.40;98.20;;;;;;5054767;28;20041;-50
2023/06/28 10:01:05;;;;;;;11.25;7.93;;;23.50;98.30;;;;;;5054491;28;20438;-49
2023/06/28 10:03:32;;;;;;;13.00;7.60;;;23.50;98.20;;;;;;5054635;28;20033;-49
2023/06/28 10:05:59;;;;;;;11.65;8.00;;;23.50;98.30;;;;;;5054711;28;20500;-50
2023/06/28 10:08:26;;;;;;;9.68;7.45;;;23.50;98.10;;;;;;5054642;28;20127;-49
2023/06/28 10:10:53;;;;;;;11.75;7.25;;;23.50;98.10;;;;;;5053395;28;20037;-51
2023/06/28 10:13:20;;;;;;;10.55;7.93;;;23.50;98.30;;;;;;5047945;28;20108;-50
2023/06/28 10:15:47;;;;;;;13.88;7.93;;;23.60;98.30;;;;;;5048447;28;20423;-48
2023/06/28 10:18:14;;;;;;;10.23;7.78;;;23.60;97.90;;;;;;5054325;28;20048;-49
2023/06/28 10:20:41;;;;;;;9.52;7.18;;;23.70;98.00;;;;;;5046184;28;20055;-47
2023/06/28 10:23:08;;;;;;;12.23;8.20;;;23.90;98.00;;;;;;5047799;28;20041;-50
2023/06/28 10:25:35;;;;;;;15.48;8.73;;;24.10;98.10;;;;;;5052495;28;20051;-50
2023/06/28 10:28:02;;;;;;;12.82;8.70;;;24.20;98.00;;;;;;5047721;28;20124;-47
2023/06/28 10:30:29;;;;;;;12.48;8.48;;;24.30;97.80;;;;;;5053992;28;20041;-47
2023/06/28 10:32:57;;;;;;;12.15;8.63;;;24.30;97.80;;;;;;5053805;28;20040;-51
2023/06/28 10:35:23;;;;;;;12.35;7.78;;;24.40;97.60;;;;;;5053981;28;20037;-47
2023/06/28 10:37:50;;;;;;;13.23;8.68;;;24.40;97.50;;;;;;5053998;28;20048;-49
2023/06/28 10:40:17;;;;;;;13.38;8.52;;;24.50;97.50;;;;;;5053893;28;20499;-52
2023/06/28 10:42:45;;;;;;;11.73;7.90;;;24.50;97.50;;;;;;5053745;28;20083;-49
2023/06/28 10:45:11;;;;;;;11.13;8.00;;;24.50;97.40;;;;;;5052600;28;20385;-49
2023/06/28 10:47:38;;;;;;;12.32;8.23;;;24.40;97.40;;;;;;5053745;28;20488;-50
2023/06/28 10:50:05;;;;;;;14.55;8.52;;;24.30;97.60;;;;;;5053794;28;20067;-48
2023/06/28 10:52:32;;;;;;;12.25;8.48;;;24.30;97.80;;;;;;5053847;28;20041;-48
2023/06/28 10:54:59;;;;;;;9.57;6.95;;;24.30;97.90;;;;;;5052988;28;20033;-52
2023/06/28 10:57:26;;;;;;;9.13;6.95;;;24.20;97.60;;;;;;5054271;28;20045;-51
2023/06/28 10:59:52;;;;;;;12.00;6.47;;;24.10;97.40;;;;;;5053157;28;20041;-51
2023/06/28 11:02:19;;;;;;;7.28;6.13;;;24.00;97.50;;;;;;5053132;28;20076;-46
2023/06/28 11:04:46;;;;;;;10.25;6.82;;;23.90;97.40;;;;;;5053461;28;20048;-49
2023/06/28 11:07:14;;;;;;;9.25;6.95;;;23.70;97.80;;;;;;5051678;28;20049;-50
2023/06/28 11:09:40;;;;;;;11.75;7.35;;;23.70;98.20;;;;;;5053396;28;20033;-48
2023/06/28 11:12:07;;;;;;;10.88;7.60;;;23.40;98.30;;;;;;5052736;28;20064;-52
2023/06/28 11:14:34;;;;;;;9.32;7.60;;;23.20;98.80;;;;;;5053495;28;20033;-49
2023/06/28 11:17:01;;;;;;;12.05;7.70;;;23.00;99.20;;;;;;5052741;28;20033;-50
2023/06/28 11:19:28;;;;;;;9.88;7.40;;;22.90;99.50;;;;;;5053182;28;20041;-52
2023/06/28 11:21:55;;;;;;;10.85;6.75;;;22.90;99.50;;;;;;5052714;28;20476;-48
2023/06/28 11:24:22;;;;;;;8.35;6.38;;;23.00;99.60;;;;;;5053127;28;20040;-47
2023/06/28 11:26:49;;;;;;;13.00;7.03;;;23.00;99.50;;;;;;5053319;28;20067;-49
2023/06/28 11:29:18;;;;;;;9.45;7.20;;;23.10;99.40;;;;;;5051529;28;20106;-48
2023/06/28 11:31:45;;;;;;;11.00;7.35;;;23.10;99.40;;;;;;5053044;28;20045;-46
2023/06/28 11:34:12;;;;;;;10.27;6.90;;;23.00;99.60;;;;;;5053100;28;20048;-51
2023/06/28 11:36:39;;;;;;;9.55;7.55;;;23.00;99.70;;;;;;5053248;28;20068;-49
2023/06/28 11:39:07;;;;;;;10.95;7.28;;;22.90;99.90;;;;;;5051873;28;20048;-46
2023/06/28 11:41:34;;;;;;;10.43;7.78;;;23.00;99.90;;;;;;5053125;28;20095;-48
2023/06/28 11:44:01;;;;;;;12.00;7.20;;;23.10;99.90;;;;;;5052781;28;20099;-46
2023/06/28 11:46:28;;;;;;;7.95;6.70;;;23.30;99.60;;;;;;5052935;28;20045;-51
2023/06/28 11:48:54;;;;;;;10.02;7.22;;;23.50;99.50;;;;;;5052876;28;20041;-48
2023/06/28 11:51:21;;;;;;;11.10;7.88;;;23.70;99.40;;;;;;5052954;28;20084;-47
2023/06/28 11:53:51;;;;;;;10.25;7.38;;;24.00;98.80;;;;;;5052427;28;20041;-48
2023/06/28 11:56:18;;;;;;;12.68;7.30;;;24.30;98.40;;;;;;5053003;28;20045;-51
2023/06/28 11:58:44;;;;;;;10.65;7.18;;;24.30;98.00;;;;;;5052748;28;20120;-49
2023/06/28 12:01:11;;;;;;;9.38;7.50;;;24.50;97.70;;;;;;5052163;28;20049;-49
2023/06/28 12:03:38;;;;;;;13.48;7.40;;;24.70;97.90;;;;;;5052774;28;20041;-50
2023/06/28 12:06:05;;;;;;;11.65;6.82;;;25.00;97.80;;;;;;5052753;28;20111;-48
2023/06/28 12:08:32;;;;;;;10.63;7.45;;;25.30;97.20;;;;;;5052028;28;20044;-50
2023/06/28 12:11:01;;;;;;;9.73;7.18;;;25.30;96.50;;;;;;5052528;28;20052;-49
2023/06/28 12:13:28;;;;;;;9.45;7.47;;;25.20;96.60;;;;;;5052264;28;20037;-47
2023/06/28 12:15:54;;;;;;;9.55;7.88;;;25.20;96.50;;;;;;5056339;28;20073;-48
2023/06/28 12:18:21;;;;;;;9.38;7.38;;;25.20;96.20;;;;;;5055580;28;20041;-48
2023/06/28 12:20:48;;;;;;;9.73;7.00;;;25.10;96.50;;;;;;5054750;28;20124;-47
2023/06/28 12:23:15;;;;;;;10.43;7.57;;;24.90;96.70;;;;;;5056576;28;20479;-51
2023/06/28 12:25:42;;;;;;;13.88;7.25;;;24.80;96.80;;;;;;5056123;28;20068;-48
2023/06/28 12:28:09;;;;;;;11.00;7.60;;;24.60;97.10;;;;;;5052223;28;20059;-47
2023/06/28 12:30:36;;;;;;;11.02;8.07;;;24.50;97.20;;;;;;5056575;28;20123;-49
2023/06/28 12:33:03;;;;;;;10.35;7.30;;;24.40;97.40;;;;;;5055814;28;20045;-47
2023/06/28 12:35:30;;;;;;;11.93;7.72;;;24.40;97.50;;;;;;5056281;28;20041;-51